sensor_id;sensor_type;location;lat;lon;timestamp;P1;durP1;ratioP1;P2;durP2;ratioP2
67092;SDS011;54011;50.772;7.730;2023-07-08T00:00:39;12.10;;;5.05;;
67092;SDS011;54011;50.772;7.730;2023-07-08T00:03:07;9.80;;;5.38;;
67092;SDS011;54011;50.772;7.730;2023-07-08T00:05:33;9.88;;;5.05;;
67092;SDS011;54011;50.772;7.730;2023-07-08T00:08:00;11.80;;;5.47;;
67092;SDS011;54011;50.772;7.730;2023-07-08T00:10:26;11.15;;;5.15;;
67092;SDS011;54011;50.772;7.730;2023-07-08T00:12:54;11.90;;;4.95;;
67092;SDS011;54011;50.772;7.730;2023-07-08T00:15:24;10.57;;;5.50;;
67092;SDS011;54011;50.772;7.730;2023-07-08T00:17:51;10.20;;;5.53;;
67092;SDS011;54011;50.772;7.730;2023-07-08T00:20:23;12.45;;;5.57;;
67092;SDS011;54011;50.772;7.730;2023-07-08T00:22:56;8.95;;;4.85;;
67092;SDS011;54011;50.772;7.730;2023-07-08T00:25:25;11.05;;;5.10;;
67092;SDS011;54011;50.772;7.730;2023-07-08T00:27:51;14.73;;;5.22;;
67092;SDS011;54011;50.772;7.730;2023-07-08T00:30:18;12.10;;;5.40;;
67092;SDS011;54011;50.772;7.730;2023-07-08T00:32:46;9.18;;;5.03;;
67092;SDS011;54011;50.772;7.730;2023-07-08T00:35:11;10.48;;;5.47;;
67092;SDS011;54011;50.772;7.730;2023-07-08T00:37:37;9.57;;;5.18;;
67092;SDS011;54011;50.772;7.730;2023-07-08T00:40:21;9.93;;;5.20;;
67092;SDS011;54011;50.772;7.730;2023-07-08T00:42:48;11.73;;;5.00;;
67092;SDS011;54011;50.772;7.730;2023-07-08T00:48:23;11.38;;;5.53;;
67092;SDS011;54011;50.772;7.730;2023-07-08T00:50:53;12.63;;;5.82;;
67092;SDS011;54011;50.772;7.730;2023-07-08T00:58:51;11.02;;;5.38;;
67092;SDS011;54011;50.772;7.730;2023-07-08T01:01:24;14.57;;;4.85;;
67092;SDS011;54011;50.772;7.730;2023-07-08T01:04:00;9.85;;;4.82;;
67092;SDS011;54011;50.772;7.730;2023-07-08T01:06:30;11.05;;;5.40;;
67092;SDS011;54011;50.772;7.730;2023-07-08T01:09:03;10.38;;;5.20;;
67092;SDS011;54011;50.772;7.730;2023-07-08T01:11:29;10.07;;;4.93;;
67092;SDS011;54011;50.772;7.730;2023-07-08T01:13:56;8.93;;;5.07;;
67092;SDS011;54011;50.772;7.730;2023-07-08T01:16:24;9.60;;;5.10;;
67092;SDS011;54011;50.772;7.730;2023-07-08T01:18:49;11.07;;;4.85;;
67092;SDS011;54011;50.772;7.730;2023-07-08T01:21:34;9.00;;;4.70;;
67092;SDS011;54011;50.772;7.730;2023-07-08T01:24:05;8.52;;;4.40;;
67092;SDS011;54011;50.772;7.730;2023-07-08T01:26:34;12.60;;;5.43;;
67092;SDS011;54011;50.772;7.730;2023-07-08T01:29:03;9.57;;;4.68;;
67092;SDS011;54011;50.772;7.730;2023-07-08T01:31:29;8.80;;;4.85;;
67092;SDS011;54011;50.772;7.730;2023-07-08T01:33:55;10.30;;;5.00;;
67092;SDS011;54011;50.772;7.730;2023-07-08T01:36:22;8.93;;;4.63;;
67092;SDS011;54011;50.772;7.730;2023-07-08T01:38:48;9.98;;;5.15;;
67092;SDS011;54011;50.772;7.730;2023-07-08T01:41:15;10.27;;;4.50;;
67092;SDS011;54011;50.772;7.730;2023-07-08T01:43:42;8.75;;;4.22;;
67092;SDS011;54011;50.772;7.730;2023-07-08T01:46:14;9.02;;;4.57;;
67092;SDS011;54011;50.772;7.730;2023-07-08T01:48:50;10.32;;;4.28;;
67092;SDS011;54011;50.772;7.730;2023-07-08T01:51:19;8.35;;;4.07;;
67092;SDS011;54011;50.772;7.730;2023-07-08T01:53:45;8.20;;;3.95;;
67092;SDS011;54011;50.772;7.730;2023-07-08T01:56:11;8.27;;;4.00;;
67092;SDS011;54011;50.772;7.730;2023-07-08T01:58:38;10.65;;;4.00;;
67092;SDS011;54011;50.772;7.730;2023-07-08T02:01:04;8.15;;;3.90;;
67092;SDS011;54011;50.772;7.730;2023-07-08T02:03:30;7.85;;;4.00;;
67092;SDS011;54011;50.772;7.730;2023-07-08T02:05:56;8.35;;;3.90;;
67092;SDS011;54011;50.772;7.730;2023-07-08T02:08:21;9.07;;;3.80;;
67092;SDS011;54011;50.772;7.730;2023-07-08T02:10:51;7.68;;;3.72;;
67092;SDS011;54011;50.772;7.730;2023-07-08T02:13:19;8.93;;;3.65;;
67092;SDS011;54011;50.772;7.730;2023-07-08T02:15:46;8.45;;;4.03;;
67092;SDS011;54011;50.772;7.730;2023-07-08T02:18:12;8.73;;;3.88;;
67092;SDS011;54011;50.772;7.730;2023-07-08T02:20:38;8.73;;;4.13;;
67092;SDS011;54011;50.772;7.730;2023-07-08T02:23:03;9.23;;;3.90;;
67092;SDS011;54011;50.772;7.730;2023-07-08T02:25:30;7.35;;;3.70;;
67092;SDS011;54011;50.772;7.730;2023-07-08T02:27:56;7.55;;;3.95;;
67092;SDS011;54011;50.772;7.730;2023-07-08T02:30:26;9.70;;;4.28;;
67092;SDS011;54011;50.772;7.730;2023-07-08T02:32:52;8.88;;;4.15;;
67092;SDS011;54011;50.772;7.730;2023-07-08T02:35:25;12.15;;;4.07;;
67092;SDS011;54011;50.772;7.730;2023-07-08T02:37:53;15.18;;;4.47;;
67092;SDS011;54011;50.772;7.730;2023-07-08T02:40:20;8.32;;;3.80;;
67092;SDS011;54011;50.772;7.730;2023-07-08T02:42:47;7.85;;;3.75;;
67092;SDS011;54011;50.772;7.730;2023-07-08T02:45:13;6.30;;;3.80;;
67092;SDS011;54011;50.772;7.730;2023-07-08T02:47:39;9.30;;;3.83;;
67092;SDS011;54011;50.772;7.730;2023-07-08T02:50:04;8.50;;;3.80;;
67092;SDS011;54011;50.772;7.730;2023-07-08T02:52:31;9.07;;;3.70;;
67092;SDS011;54011;50.772;7.730;2023-07-08T02:54:57;7.00;;;3.67;;
67092;SDS011;54011;50.772;7.730;2023-07-08T02:57:23;12.20;;;3.78;;
67092;SDS011;54011;50.772;7.730;2023-07-08T02:59:48;8.52;;;3.70;;
67092;SDS011;54011;50.772;7.730;2023-07-08T03:02:14;8.65;;;3.80;;
67092;SDS011;54011;50.772;7.730;2023-07-08T03:04:41;6.88;;;3.70;;
67092;SDS011;54011;50.772;7.730;2023-07-08T03:07:07;8.20;;;3.70;;
67092;SDS011;54011;50.772;7.730;2023-07-08T03:09:40;8.60;;;4.20;;
67092;SDS011;54011;50.772;7.730;2023-07-08T03:12:07;8.05;;;3.95;;
67092;SDS011;54011;50.772;7.730;2023-07-08T03:14:34;11.65;;;4.10;;
67092;SDS011;54011;50.772;7.730;2023-07-08T03:17:01;8.00;;;3.97;;
67092;SDS011;54011;50.772;7.730;2023-07-08T03:19:27;7.45;;;3.70;;
67092;SDS011;54011;50.772;7.730;2023-07-08T03:21:52;9.10;;;3.45;;
67092;SDS011;54011;50.772;7.730;2023-07-08T03:24:18;8.38;;;3.67;;
67092;SDS011;54011;50.772;7.730;2023-07-08T03:26:45;7.47;;;3.63;;
67092;SDS011;54011;50.772;7.730;2023-07-08T03:29:14;10.90;;;3.63;;
67092;SDS011;54011;50.772;7.730;2023-07-08T03:31:42;8.43;;;3.50;;
67092;SDS011;54011;50.772;7.730;2023-07-08T03:34:13;7.82;;;3.63;;
67092;SDS011;54011;50.772;7.730;2023-07-08T03:39:15;6.30;;;3.20;;
67092;SDS011;54011;50.772;7.730;2023-07-08T03:41:45;7.15;;;3.80;;
67092;SDS011;54011;50.772;7.730;2023-07-08T03:44:11;7.40;;;4.03;;
67092;SDS011;54011;50.772;7.730;2023-07-08T03:46:38;7.13;;;3.78;;
67092;SDS011;54011;50.772;7.730;2023-07-08T03:49:05;9.75;;;4.03;;
67092;SDS011;54011;50.772;7.730;2023-07-08T03:51:32;8.30;;;4.35;;
67092;SDS011;54011;50.772;7.730;2023-07-08T03:53:59;8.65;;;4.13;;
67092;SDS011;54011;50.772;7.730;2023-07-08T03:56:25;7.97;;;3.55;;
67092;SDS011;54011;50.772;7.730;2023-07-08T03:58:51;7.00;;;3.45;;
67092;SDS011;54011;50.772;7.730;2023-07-08T04:01:17;8.23;;;3.47;;
67092;SDS011;54011;50.772;7.730;2023-07-08T04:03:46;9.00;;;3.92;;
67092;SDS011;54011;50.772;7.730;2023-07-08T04:06:13;9.32;;;3.40;;
67092;SDS011;54011;50.772;7.730;2023-07-08T04:08:39;7.75;;;3.25;;
67092;SDS011;54011;50.772;7.730;2023-07-08T04:11:05;6.72;;;3.58;;
67092;SDS011;54011;50.772;7.730;2023-07-08T04:13:31;6.53;;;3.33;;
67092;SDS011;54011;50.772;7.730;2023-07-08T04:15:59;5.88;;;3.33;;
67092;SDS011;54011;50.772;7.730;2023-07-08T04:18:26;6.57;;;3.60;;
67092;SDS011;54011;50.772;7.730;2023-07-08T04:20:52;6.57;;;3.50;;
67092;SDS011;54011;50.772;7.730;2023-07-08T04:23:19;7.15;;;3.33;;
67092;SDS011;54011;50.772;7.730;2023-07-08T04:25:45;7.72;;;3.42;;
67092;SDS011;54011;50.772;7.730;2023-07-08T04:28:12;7.97;;;3.40;;
67092;SDS011;54011;50.772;7.730;2023-07-08T04:30:39;5.85;;;3.30;;
67092;SDS011;54011;50.772;7.730;2023-07-08T04:33:07;6.45;;;3.03;;
67092;SDS011;54011;50.772;7.730;2023-07-08T04:35:34;9.05;;;3.92;;
67092;SDS011;54011;50.772;7.730;2023-07-08T04:38:01;6.57;;;3.40;;
67092;SDS011;54011;50.772;7.730;2023-07-08T04:40:34;5.72;;;2.83;;
67092;SDS011;54011;50.772;7.730;2023-07-08T04:45:32;8.80;;;3.65;;
67092;SDS011;54011;50.772;7.730;2023-07-08T04:48:00;7.28;;;3.67;;
67092;SDS011;54011;50.772;7.730;2023-07-08T04:50:25;7.45;;;3.20;;
67092;SDS011;54011;50.772;7.730;2023-07-08T04:52:51;8.45;;;3.45;;
67092;SDS011;54011;50.772;7.730;2023-07-08T04:55:16;7.22;;;3.28;;
67092;SDS011;54011;50.772;7.730;2023-07-08T04:57:43;8.23;;;3.10;;
67092;SDS011;54011;50.772;7.730;2023-07-08T05:00:12;8.23;;;3.08;;
67092;SDS011;54011;50.772;7.730;2023-07-08T05:02:42;5.47;;;3.28;;
67092;SDS011;54011;50.772;7.730;2023-07-08T05:05:07;5.72;;;3.13;;
67092;SDS011;54011;50.772;7.730;2023-07-08T05:07:33;8.25;;;3.05;;
67092;SDS011;54011;50.772;7.730;2023-07-08T05:09:58;9.38;;;3.10;;
67092;SDS011;54011;50.772;7.730;2023-07-08T05:12:25;6.28;;;3.00;;
67092;SDS011;54011;50.772;7.730;2023-07-08T05:14:53;11.27;;;3.55;;
67092;SDS011;54011;50.772;7.730;2023-07-08T05:17:19;7.15;;;3.83;;
67092;SDS011;54011;50.772;7.730;2023-07-08T05:19:44;8.35;;;3.78;;
67092;SDS011;54011;50.772;7.730;2023-07-08T05:22:14;10.73;;;3.95;;
67092;SDS011;54011;50.772;7.730;2023-07-08T05:24:40;7.68;;;3.55;;
67092;SDS011;54011;50.772;7.730;2023-07-08T05:27:07;7.18;;;3.60;;
67092;SDS011;54011;50.772;7.730;2023-07-08T05:29:33;12.27;;;3.35;;
67092;SDS011;54011;50.772;7.730;2023-07-08T05:31:58;7.22;;;3.22;;
67092;SDS011;54011;50.772;7.730;2023-07-08T05:34:24;8.70;;;3.50;;
67092;SDS011;54011;50.772;7.730;2023-07-08T05:36:50;6.63;;;3.20;;
67092;SDS011;54011;50.772;7.730;2023-07-08T05:39:16;8.18;;;3.40;;
67092;SDS011;54011;50.772;7.730;2023-07-08T05:41:42;7.30;;;3.30;;
67092;SDS011;54011;50.772;7.730;2023-07-08T05:44:09;9.05;;;3.67;;
67092;SDS011;54011;50.772;7.730;2023-07-08T05:46:35;7.15;;;2.97;;
67092;SDS011;54011;50.772;7.730;2023-07-08T05:49:01;7.47;;;3.13;;
67092;SDS011;54011;50.772;7.730;2023-07-08T05:51:27;6.05;;;3.00;;
67092;SDS011;54011;50.772;7.730;2023-07-08T05:53:53;6.93;;;3.05;;
67092;SDS011;54011;50.772;7.730;2023-07-08T05:56:18;5.82;;;3.15;;
67092;SDS011;54011;50.772;7.730;2023-07-08T05:58:45;7.97;;;3.35;;
67092;SDS011;54011;50.772;7.730;2023-07-08T06:01:10;7.95;;;3.13;;
67092;SDS011;54011;50.772;7.730;2023-07-08T06:03:36;7.40;;;2.92;;
67092;SDS011;54011;50.772;7.730;2023-07-08T06:06:03;6.05;;;3.17;;
67092;SDS011;54011;50.772;7.730;2023-07-08T06:08:31;6.75;;;2.97;;
67092;SDS011;54011;50.772;7.730;2023-07-08T06:10:57;5.30;;;3.17;;
67092;SDS011;54011;50.772;7.730;2023-07-08T06:13:23;6.85;;;3.58;;
67092;SDS011;54011;50.772;7.730;2023-07-08T06:15:49;5.35;;;2.90;;
67092;SDS011;54011;50.772;7.730;2023-07-08T06:18:15;6.05;;;3.35;;
67092;SDS011;54011;50.772;7.730;2023-07-08T06:20:40;6.80;;;3.72;;
67092;SDS011;54011;50.772;7.730;2023-07-08T06:23:07;6.45;;;3.53;;
67092;SDS011;54011;50.772;7.730;2023-07-08T06:25:32;9.25;;;3.40;;
67092;SDS011;54011;50.772;7.730;2023-07-08T06:27:58;6.32;;;3.22;;
67092;SDS011;54011;50.772;7.730;2023-07-08T06:30:24;9.93;;;3.38;;
67092;SDS011;54011;50.772;7.730;2023-07-08T06:32:50;7.75;;;3.30;;
67092;SDS011;54011;50.772;7.730;2023-07-08T06:35:16;6.43;;;3.03;;
67092;SDS011;54011;50.772;7.730;2023-07-08T06:37:42;12.75;;;3.72;;
67092;SDS011;54011;50.772;7.730;2023-07-08T06:40:07;5.72;;;3.20;;
67092;SDS011;54011;50.772;7.730;2023-07-08T06:42:35;7.93;;;3.40;;
67092;SDS011;54011;50.772;7.730;2023-07-08T06:45:08;9.00;;;3.25;;
67092;SDS011;54011;50.772;7.730;2023-07-08T06:47:34;7.50;;;3.40;;
67092;SDS011;54011;50.772;7.730;2023-07-08T06:50:01;6.80;;;3.10;;
67092;SDS011;54011;50.772;7.730;2023-07-08T06:52:27;5.82;;;2.80;;
67092;SDS011;54011;50.772;7.730;2023-07-08T06:54:59;7.15;;;3.38;;
67092;SDS011;54011;50.772;7.730;2023-07-08T06:57:26;8.35;;;3.28;;
67092;SDS011;54011;50.772;7.730;2023-07-08T06:59:53;7.05;;;3.15;;
67092;SDS011;54011;50.772;7.730;2023-07-08T07:02:19;8.77;;;3.63;;
67092;SDS011;54011;50.772;7.730;2023-07-08T07:04:45;10.85;;;3.45;;
67092;SDS011;54011;50.772;7.730;2023-07-08T07:07:10;7.78;;;3.40;;
67092;SDS011;54011;50.772;7.730;2023-07-08T07:09:36;6.10;;;3.25;;
67092;SDS011;54011;50.772;7.730;2023-07-08T07:12:05;7.47;;;3.35;;
67092;SDS011;54011;50.772;7.730;2023-07-08T07:14:31;11.10;;;3.10;;
67092;SDS011;54011;50.772;7.730;2023-07-08T07:16:57;8.20;;;3.40;;
67092;SDS011;54011;50.772;7.730;2023-07-08T07:19:23;7.25;;;3.38;;
67092;SDS011;54011;50.772;7.730;2023-07-08T07:21:49;9.48;;;3.30;;
67092;SDS011;54011;50.772;7.730;2023-07-08T07:24:15;6.25;;;3.20;;
67092;SDS011;54011;50.772;7.730;2023-07-08T07:26:40;9.55;;;3.45;;
67092;SDS011;54011;50.772;7.730;2023-07-08T07:29:07;6.10;;;3.20;;
67092;SDS011;54011;50.772;7.730;2023-07-08T07:31:33;5.68;;;3.35;;
67092;SDS011;54011;50.772;7.730;2023-07-08T07:33:59;9.30;;;3.42;;
67092;SDS011;54011;50.772;7.730;2023-07-08T07:36:25;9.63;;;3.63;;
67092;SDS011;54011;50.772;7.730;2023-07-08T07:38:51;10.27;;;3.88;;
67092;SDS011;54011;50.772;7.730;2023-07-08T07:41:17;9.65;;;3.42;;
67092;SDS011;54011;50.772;7.730;2023-07-08T07:43:42;6.93;;;3.80;;
67092;SDS011;54011;50.772;7.730;2023-07-08T07:46:09;7.35;;;4.05;;
67092;SDS011;54011;50.772;7.730;2023-07-08T07:48:35;8.60;;;3.70;;
67092;SDS011;54011;50.772;7.730;2023-07-08T07:51:01;6.90;;;3.47;;
67092;SDS011;54011;50.772;7.730;2023-07-08T07:53:27;6.70;;;3.40;;
67092;SDS011;54011;50.772;7.730;2023-07-08T07:56:00;8.05;;;3.75;;
67092;SDS011;54011;50.772;7.730;2023-07-08T07:58:27;9.70;;;3.47;;
67092;SDS011;54011;50.772;7.730;2023-07-08T08:00:53;10.75;;;4.10;;
67092;SDS011;54011;50.772;7.730;2023-07-08T08:03:20;8.23;;;3.65;;
67092;SDS011;54011;50.772;7.730;2023-07-08T08:05:46;7.50;;;3.70;;
67092;SDS011;54011;50.772;7.730;2023-07-08T08:08:12;7.45;;;3.50;;
67092;SDS011;54011;50.772;7.730;2023-07-08T08:10:37;8.07;;;4.10;;
67092;SDS011;54011;50.772;7.730;2023-07-08T08:13:03;8.13;;;3.85;;
67092;SDS011;54011;50.772;7.730;2023-07-08T08:15:28;7.10;;;3.80;;
67092;SDS011;54011;50.772;7.730;2023-07-08T08:17:54;9.85;;;3.83;;
67092;SDS011;54011;50.772;7.730;2023-07-08T08:20:21;6.60;;;3.80;;
67092;SDS011;54011;50.772;7.730;2023-07-08T08:22:47;7.10;;;3.78;;
67092;SDS011;54011;50.772;7.730;2023-07-08T08:25:16;10.57;;;3.78;;
67092;SDS011;54011;50.772;7.730;2023-07-08T08:27:43;7.47;;;3.88;;
67092;SDS011;54011;50.772;7.730;2023-07-08T08:30:10;9.88;;;4.78;;
67092;SDS011;54011;50.772;7.730;2023-07-08T08:32:37;8.38;;;3.78;;
67092;SDS011;54011;50.772;7.730;2023-07-08T08:35:04;6.43;;;3.50;;
67092;SDS011;54011;50.772;7.730;2023-07-08T08:37:30;7.90;;;4.00;;
67092;SDS011;54011;50.772;7.730;2023-07-08T08:39:55;6.82;;;3.65;;
67092;SDS011;54011;50.772;7.730;2023-07-08T08:42:26;7.68;;;3.10;;
67092;SDS011;54011;50.772;7.730;2023-07-08T08:44:54;6.75;;;3.42;;
67092;SDS011;54011;50.772;7.730;2023-07-08T08:49:50;9.00;;;3.67;;
67092;SDS011;54011;50.772;7.730;2023-07-08T08:52:22;9.57;;;3.35;;
67092;SDS011;54011;50.772;7.730;2023-07-08T08:54:49;6.28;;;3.45;;
67092;SDS011;54011;50.772;7.730;2023-07-08T08:59:49;7.53;;;3.25;;
67092;SDS011;54011;50.772;7.730;2023-07-08T09:04:47;6.07;;;3.30;;
67092;SDS011;54011;50.772;7.730;2023-07-08T09:07:14;7.22;;;3.00;;
67092;SDS011;54011;50.772;7.730;2023-07-08T09:09:47;5.97;;;2.88;;
67092;SDS011;54011;50.772;7.730;2023-07-08T09:12:27;6.50;;;2.95;;
67092;SDS011;54011;50.772;7.730;2023-07-08T09:14:56;6.78;;;2.83;;
67092;SDS011;54011;50.772;7.730;2023-07-08T09:17:30;5.47;;;2.80;;
67092;SDS011;54011;50.772;7.730;2023-07-08T09:22:59;6.22;;;3.22;;
67092;SDS011;54011;50.772;7.730;2023-07-08T09:25:34;5.72;;;2.70;;
67092;SDS011;54011;50.772;7.730;2023-07-08T09:28:05;7.97;;;2.90;;
67092;SDS011;54011;50.772;7.730;2023-07-08T09:30:30;5.78;;;2.80;;
67092;SDS011;54011;50.772;7.730;2023-07-08T09:32:56;6.45;;;2.70;;
67092;SDS011;54011;50.772;7.730;2023-07-08T09:35:27;6.22;;;3.10;;
67092;SDS011;54011;50.772;7.730;2023-07-08T09:38:06;7.25;;;2.88;;
67092;SDS011;54011;50.772;7.730;2023-07-08T09:40:33;5.72;;;3.17;;
67092;SDS011;54011;50.772;7.730;2023-07-08T09:43:03;8.77;;;3.83;;
67092;SDS011;54011;50.772;7.730;2023-07-08T09:45:50;9.75;;;3.40;;
67092;SDS011;54011;50.772;7.730;2023-07-08T09:48:39;9.15;;;3.15;;
67092;SDS011;54011;50.772;7.730;2023-07-08T09:51:05;9.57;;;3.45;;
67092;SDS011;54011;50.772;7.730;2023-07-08T09:53:33;6.10;;;2.95;;
67092;SDS011;54011;50.772;7.730;2023-07-08T09:56:00;6.32;;;3.20;;
67092;SDS011;54011;50.772;7.730;2023-07-08T09:58:32;6.47;;;3.35;;
67092;SDS011;54011;50.772;7.730;2023-07-08T10:01:25;8.38;;;3.25;;
67092;SDS011;54011;50.772;7.730;2023-07-08T10:04:00;7.07;;;3.05;;
67092;SDS011;54011;50.772;7.730;2023-07-08T10:06:29;7.38;;;3.35;;
67092;SDS011;54011;50.772;7.730;2023-07-08T10:11:48;7.40;;;3.58;;
67092;SDS011;54011;50.772;7.730;2023-07-08T10:16:47;7.43;;;3.33;;
67092;SDS011;54011;50.772;7.730;2023-07-08T10:19:15;7.18;;;3.13;;
67092;SDS011;54011;50.772;7.730;2023-07-08T10:21:59;10.55;;;3.08;;
67092;SDS011;54011;50.772;7.730;2023-07-08T10:24:46;8.52;;;3.22;;
67092;SDS011;54011;50.772;7.730;2023-07-08T10:30:22;6.57;;;3.58;;
67092;SDS011;54011;50.772;7.730;2023-07-08T10:32:55;7.95;;;3.47;;
67092;SDS011;54011;50.772;7.730;2023-07-08T10:35:34;9.80;;;3.63;;
67092;SDS011;54011;50.772;7.730;2023-07-08T10:41:08;6.25;;;3.15;;
67092;SDS011;54011;50.772;7.730;2023-07-08T10:46:29;7.20;;;3.67;;
67092;SDS011;54011;50.772;7.730;2023-07-08T10:57:19;8.30;;;4.05;;
67092;SDS011;54011;50.772;7.730;2023-07-08T11:02:20;6.90;;;3.30;;
67092;SDS011;54011;50.772;7.730;2023-07-08T11:05:01;10.68;;;3.33;;
67092;SDS011;54011;50.772;7.730;2023-07-08T11:07:50;10.65;;;3.75;;
67092;SDS011;54011;50.772;7.730;2023-07-08T11:10:21;7.25;;;3.78;;
67092;SDS011;54011;50.772;7.730;2023-07-08T11:13:00;9.05;;;3.45;;
67092;SDS011;54011;50.772;7.730;2023-07-08T11:15:43;9.90;;;3.38;;
67092;SDS011;54011;50.772;7.730;2023-07-08T11:26:32;8.82;;;3.80;;
67092;SDS011;54011;50.772;7.730;2023-07-08T11:28:59;12.38;;;3.95;;
67092;SDS011;54011;50.772;7.730;2023-07-08T11:31:27;10.60;;;4.20;;
67092;SDS011;54011;50.772;7.730;2023-07-08T11:33:56;10.23;;;3.75;;
67092;SDS011;54011;50.772;7.730;2023-07-08T11:36:22;7.53;;;3.85;;
67092;SDS011;54011;50.772;7.730;2023-07-08T11:38:50;8.90;;;3.65;;
67092;SDS011;54011;50.772;7.730;2023-07-08T11:41:25;7.38;;;3.53;;
67092;SDS011;54011;50.772;7.730;2023-07-08T11:43:57;10.30;;;3.78;;
67092;SDS011;54011;50.772;7.730;2023-07-08T11:46:28;7.53;;;3.45;;
67092;SDS011;54011;50.772;7.730;2023-07-08T11:49:02;9.82;;;3.90;;
67092;SDS011;54011;50.772;7.730;2023-07-08T11:51:41;8.70;;;3.42;;
67092;SDS011;54011;50.772;7.730;2023-07-08T11:54:11;9.95;;;4.03;;
67092;SDS011;54011;50.772;7.730;2023-07-08T11:56:50;9.65;;;4.10;;
67092;SDS011;54011;50.772;7.730;2023-07-08T11:59:30;8.43;;;3.92;;
67092;SDS011;54011;50.772;7.730;2023-07-08T12:04:31;9.27;;;3.90;;
67092;SDS011;54011;50.772;7.730;2023-07-08T12:09:46;8.55;;;4.15;;
67092;SDS011;54011;50.772;7.730;2023-07-08T12:12:19;7.55;;;3.78;;
67092;SDS011;54011;50.772;7.730;2023-07-08T12:14:49;6.47;;;3.40;;
67092;SDS011;54011;50.772;7.730;2023-07-08T12:17:15;7.95;;;4.10;;
67092;SDS011;54011;50.772;7.730;2023-07-08T12:19:42;15.90;;;4.47;;
67092;SDS011;54011;50.772;7.730;2023-07-08T12:22:10;8.40;;;4.45;;
67092;SDS011;54011;50.772;7.730;2023-07-08T12:24:37;8.55;;;4.30;;
67092;SDS011;54011;50.772;7.730;2023-07-08T12:27:03;8.43;;;4.18;;
67092;SDS011;54011;50.772;7.730;2023-07-08T12:29:31;6.72;;;4.20;;
67092;SDS011;54011;50.772;7.730;2023-07-08T12:34:31;7.80;;;4.13;;
67092;SDS011;54011;50.772;7.730;2023-07-08T12:36:57;8.25;;;3.83;;
67092;SDS011;54011;50.772;7.730;2023-07-08T12:39:24;11.35;;;4.10;;
67092;SDS011;54011;50.772;7.730;2023-07-08T12:41:49;12.57;;;3.75;;
67092;SDS011;54011;50.772;7.730;2023-07-08T12:44:38;9.30;;;4.38;;
67092;SDS011;54011;50.772;7.730;2023-07-08T12:47:04;12.52;;;4.43;;
67092;SDS011;54011;50.772;7.730;2023-07-08T12:49:33;14.25;;;3.95;;
67092;SDS011;54011;50.772;7.730;2023-07-08T12:51:59;9.13;;;4.22;;
67092;SDS011;54011;50.772;7.730;2023-07-08T12:54:27;9.02;;;3.97;;
67092;SDS011;54011;50.772;7.730;2023-07-08T12:56:54;10.93;;;4.20;;
67092;SDS011;54011;50.772;7.730;2023-07-08T12:59:21;8.50;;;4.20;;
67092;SDS011;54011;50.772;7.730;2023-07-08T13:01:50;10.75;;;4.50;;
67092;SDS011;54011;50.772;7.730;2023-07-08T13:04:17;7.45;;;4.22;;
67092;SDS011;54011;50.772;7.730;2023-07-08T13:06:46;6.80;;;3.90;;
67092;SDS011;54011;50.772;7.730;2023-07-08T13:09:20;9.05;;;4.38;;
67092;SDS011;54011;50.772;7.730;2023-07-08T13:11:55;9.02;;;3.75;;
67092;SDS011;54011;50.772;7.730;2023-07-08T13:14:22;8.23;;;4.00;;
67092;SDS011;54011;50.772;7.730;2023-07-08T13:16:49;8.57;;;3.88;;
67092;SDS011;54011;50.772;7.730;2023-07-08T13:19:16;8.98;;;4.22;;
67092;SDS011;54011;50.772;7.730;2023-07-08T13:21:43;8.77;;;4.10;;
67092;SDS011;54011;50.772;7.730;2023-07-08T13:24:10;7.57;;;4.18;;
67092;SDS011;54011;50.772;7.730;2023-07-08T13:26:39;9.95;;;4.70;;
67092;SDS011;54011;50.772;7.730;2023-07-08T13:29:11;10.20;;;4.15;;
67092;SDS011;54011;50.772;7.730;2023-07-08T13:31:47;7.95;;;4.30;;
67092;SDS011;54011;50.772;7.730;2023-07-08T13:34:18;13.20;;;4.60;;
67092;SDS011;54011;50.772;7.730;2023-07-08T13:36:46;12.15;;;4.72;;
67092;SDS011;54011;50.772;7.730;2023-07-08T13:39:20;10.18;;;4.75;;
67092;SDS011;54011;50.772;7.730;2023-07-08T13:41:52;12.27;;;4.32;;
67092;SDS011;54011;50.772;7.730;2023-07-08T13:44:18;11.60;;;4.55;;
67092;SDS011;54011;50.772;7.730;2023-07-08T13:46:45;9.07;;;4.25;;
67092;SDS011;54011;50.772;7.730;2023-07-08T13:49:38;8.73;;;4.57;;
67092;SDS011;54011;50.772;7.730;2023-07-08T13:54:39;10.13;;;4.00;;
67092;SDS011;54011;50.772;7.730;2023-07-08T13:57:12;8.45;;;3.97;;
67092;SDS011;54011;50.772;7.730;2023-07-08T13:59:40;9.32;;;4.38;;
67092;SDS011;54011;50.772;7.730;2023-07-08T14:02:16;9.30;;;4.20;;
67092;SDS011;54011;50.772;7.730;2023-07-08T14:04:47;11.07;;;4.68;;
67092;SDS011;54011;50.772;7.730;2023-07-08T14:07:18;14.40;;;4.45;;
67092;SDS011;54011;50.772;7.730;2023-07-08T14:09:46;9.30;;;4.10;;
67092;SDS011;54011;50.772;7.730;2023-07-08T14:12:14;11.65;;;4.47;;
67092;SDS011;54011;50.772;7.730;2023-07-08T14:14:40;9.38;;;4.35;;
67092;SDS011;54011;50.772;7.730;2023-07-08T14:17:08;8.02;;;4.47;;
67092;SDS011;54011;50.772;7.730;2023-07-08T14:19:37;11.23;;;4.45;;
67092;SDS011;54011;50.772;7.730;2023-07-08T14:22:16;8.82;;;4.30;;
67092;SDS011;54011;50.772;7.730;2023-07-08T14:24:46;10.50;;;4.22;;
67092;SDS011;54011;50.772;7.730;2023-07-08T14:27:12;8.48;;;4.05;;
67092;SDS011;54011;50.772;7.730;2023-07-08T14:29:39;10.98;;;4.43;;
67092;SDS011;54011;50.772;7.730;2023-07-08T14:32:14;9.13;;;3.95;;
67092;SDS011;54011;50.772;7.730;2023-07-08T14:34:47;7.80;;;4.28;;
67092;SDS011;54011;50.772;7.730;2023-07-08T14:37:16;10.90;;;4.32;;
67092;SDS011;54011;50.772;7.730;2023-07-08T14:39:43;9.90;;;4.70;;
67092;SDS011;54011;50.772;7.730;2023-07-08T14:42:13;10.18;;;4.10;;
67092;SDS011;54011;50.772;7.730;2023-07-08T14:44:42;7.82;;;4.10;;
67092;SDS011;54011;50.772;7.730;2023-07-08T14:47:10;9.88;;;4.43;;
67092;SDS011;54011;50.772;7.730;2023-07-08T14:49:37;8.70;;;4.60;;
67092;SDS011;54011;50.772;7.730;2023-07-08T14:52:04;8.43;;;4.50;;
67092;SDS011;54011;50.772;7.730;2023-07-08T14:54:32;8.85;;;4.10;;
67092;SDS011;54011;50.772;7.730;2023-07-08T14:56:58;9.30;;;4.20;;
67092;SDS011;54011;50.772;7.730;2023-07-08T14:59:25;8.93;;;4.30;;
67092;SDS011;54011;50.772;7.730;2023-07-08T15:01:54;7.95;;;4.38;;
67092;SDS011;54011;50.772;7.730;2023-07-08T15:04:21;13.25;;;4.45;;
67092;SDS011;54011;50.772;7.730;2023-07-08T15:06:46;12.90;;;4.25;;
67092;SDS011;54011;50.772;7.730;2023-07-08T15:09:13;9.35;;;4.20;;
67092;SDS011;54011;50.772;7.730;2023-07-08T15:11:40;7.88;;;3.97;;
67092;SDS011;54011;50.772;7.730;2023-07-08T15:14:22;8.45;;;4.20;;
67092;SDS011;54011;50.772;7.730;2023-07-08T15:16:49;10.32;;;4.35;;
67092;SDS011;54011;50.772;7.730;2023-07-08T15:19:17;8.23;;;3.95;;
67092;SDS011;54011;50.772;7.730;2023-07-08T15:24:13;11.57;;;4.20;;
67092;SDS011;54011;50.772;7.730;2023-07-08T15:26:44;7.50;;;4.07;;
67092;SDS011;54011;50.772;7.730;2023-07-08T15:29:15;10.95;;;4.20;;
67092;SDS011;54011;50.772;7.730;2023-07-08T15:31:49;8.82;;;4.43;;
67092;SDS011;54011;50.772;7.730;2023-07-08T15:34:20;9.65;;;4.07;;
67092;SDS011;54011;50.772;7.730;2023-07-08T15:36:46;9.10;;;3.83;;
67092;SDS011;54011;50.772;7.730;2023-07-08T15:39:13;10.07;;;4.00;;
67092;SDS011;54011;50.772;7.730;2023-07-08T15:41:39;12.50;;;4.65;;
67092;SDS011;54011;50.772;7.730;2023-07-08T15:44:06;8.23;;;5.10;;
67092;SDS011;54011;50.772;7.730;2023-07-08T15:46:37;10.25;;;4.15;;
67092;SDS011;54011;50.772;7.730;2023-07-08T15:49:19;7.88;;;4.00;;
67092;SDS011;54011;50.772;7.730;2023-07-08T15:51:48;11.23;;;4.50;;
67092;SDS011;54011;50.772;7.730;2023-07-08T15:54:13;9.93;;;4.10;;
67092;SDS011;54011;50.772;7.730;2023-07-08T15:56:39;8.68;;;3.70;;
67092;SDS011;54011;50.772;7.730;2023-07-08T15:59:09;8.82;;;4.10;;
67092;SDS011;54011;50.772;7.730;2023-07-08T16:01:38;11.25;;;4.20;;
67092;SDS011;54011;50.772;7.730;2023-07-08T16:04:05;10.00;;;3.90;;